Time;durP1;ratioP1;P1;durP2;ratioP2;P2;SDS_P1;SDS_P2;PMS_P1;PMS_P2;Temp;Humidity;BMP_temperature;BMP_pressure;BME280_temperature;BME280_humidity;BME280_pressure;Samples;Min_cycle;Max_cycle;Signal;HPM_P1;HPM_P2
2022/11/04 00:01:43;;;;;;;2.13;1.25;;;11.80;99.90;;;;;;5116638;28;20050;-39
2022/11/04 00:04:11;;;;;;;3.22;1.10;;;11.90;99.90;;;;;;5115418;28;20073;-40
2022/11/04 00:06:37;;;;;;;7.13;1.10;;;11.90;99.90;;;;;;5099250;28;20035;-41
2022/11/04 00:09:05;;;;;;;4.63;1.08;;;11.90;99.90;;;;;;5107592;28;20031;-48
2022/11/04 00:14:16;;;;;;;4.18;1.02;;;11.80;99.90;;;;;;5116673;28;20274;-41
2022/11/04 00:30:31;;;;;;;3.75;0.80;;;11.70;99.90;;;;;;5098739;28;20039;-34
2022/11/04 00:35:48;;;;;;;4.97;0.73;;;11.70;99.90;;;;;;5098208;28;20038;-39
2022/11/04 00:38:13;;;;;;;5.65;0.60;;;11.80;99.90;;;;;;5106659;28;20379;-40
2022/11/04 00:40:39;;;;;;;2.17;0.75;;;11.80;99.90;;;;;;5100508;28;20024;-39
2022/11/04 00:43:04;;;;;;;3.70;0.73;;;11.80;99.90;;;;;;5102595;28;20531;-41
2022/11/04 00:45:30;;;;;;;4.10;0.95;;;11.80;99.90;;;;;;5098540;28;20073;-38
2022/11/04 00:47:56;;;;;;;6.32;0.90;;;11.70;99.90;;;;;;5107025;28;20027;-40
2022/11/04 00:50:21;;;;;;;4.13;0.90;;;11.70;99.90;;;;;;5114452;28;20027;-41
2022/11/04 00:52:47;;;;;;;4.25;1.48;;;11.70;99.90;;;;;;5111309;28;20080;-40
2022/11/04 00:55:13;;;;;;;8.77;1.05;;;11.70;99.90;;;;;;5095751;28;20034;-40
2022/11/04 00:57:38;;;;;;;6.10;1.50;;;11.70;99.90;;;;;;5097299;28;20039;-51
2022/11/04 01:00:04;;;;;;;6.30;1.65;;;11.70;99.90;;;;;;5113755;28;20032;-30
2022/11/04 01:02:30;;;;;;;3.42;1.40;;;11.70;99.90;;;;;;5110092;28;20047;-29
2022/11/04 01:04:56;;;;;;;5.57;1.67;;;11.70;99.90;;;;;;5097863;28;20499;-30
2022/11/04 01:07:21;;;;;;;4.00;1.23;;;11.70;99.90;;;;;;5103847;28;20024;-33
2022/11/04 01:09:48;;;;;;;1.02;0.98;;;11.70;99.90;;;;;;5097727;28;20042;-32
2022/11/04 01:12:16;;;;;;;3.92;0.90;;;11.70;99.90;;;;;;5106274;28;20114;-34
2022/11/04 01:14:42;;;;;;;0.90;0.90;;;11.70;99.90;;;;;;5103770;28;20023;-31
2022/11/04 01:17:08;;;;;;;1.75;0.75;;;11.70;99.90;;;;;;5108480;28;20031;-32
2022/11/04 01:19:34;;;;;;;4.82;1.13;;;11.70;99.90;;;;;;5112865;28;20181;-32
2022/11/04 01:21:59;;;;;;;2.97;0.70;;;11.60;99.90;;;;;;5098908;28;20027;-38
2022/11/04 01:24:25;;;;;;;0.68;0.57;;;11.60;99.90;;;;;;5108250;28;20024;-33
2022/11/04 01:26:54;;;;;;;5.70;0.65;;;11.60;99.90;;;;;;5097933;28;20034;-31
2022/11/04 01:29:20;;;;;;;1.23;0.70;;;11.50;99.90;;;;;;5099007;28;20055;-35
2022/11/04 01:31:46;;;;;;;0.68;0.55;;;11.40;99.90;;;;;;5114776;28;20043;-36
2022/11/04 01:34:11;;;;;;;0.38;0.38;;;11.40;99.90;;;;;;5112703;28;20384;-31
2022/11/04 01:36:37;;;;;;;0.88;0.63;;;11.30;99.90;;;;;;5095107;28;20023;-39
2022/11/04 01:39:02;;;;;;;1.65;0.47;;;11.20;99.90;;;;;;5094796;28;20039;-35
2022/11/04 01:41:31;;;;;;;4.72;0.52;;;11.20;99.90;;;;;;5092903;28;20020;-40
2022/11/04 01:43:59;;;;;;;5.07;0.70;;;11.20;99.90;;;;;;5094255;28;20024;-38
2022/11/04 01:46:43;;;;;;;0.40;0.40;;;11.10;99.90;;;;;;5102768;27;20539;-32
2022/11/04 01:49:34;;;;;;;0.38;0.32;;;11.10;99.90;;;;;;5094430;28;20031;-46
2022/11/04 01:52:08;;;;;;;0.30;0.30;;;11.10;99.90;;;;;;5087964;28;20492;-36
2022/11/04 01:54:35;;;;;;;0.85;0.45;;;11.10;99.90;;;;;;5114362;28;20114;-43
2022/11/04 01:57:04;;;;;;;0.68;0.40;;;11.10;99.90;;;;;;5102870;28;20035;-37
2022/11/04 01:59:35;;;;;;;0.50;0.50;;;11.10;99.90;;;;;;5127065;27;20465;-35
2022/11/04 02:02:02;;;;;;;2.40;0.43;;;11.10;99.90;;;;;;5130626;27;20085;-50
2022/11/04 02:04:29;;;;;;;1.65;0.40;;;11.00;99.90;;;;;;5109989;28;20422;-31
2022/11/04 02:07:07;;;;;;;0.32;0.32;;;11.10;99.90;;;;;;5094372;28;20052;-32
2022/11/04 02:09:35;;;;;;;1.33;0.40;;;11.10;99.90;;;;;;5094035;28;20514;-31
2022/11/04 02:14:47;;;;;;;0.95;0.60;;;11.10;99.90;;;;;;5132107;27;20080;-33
2022/11/04 02:17:19;;;;;;;2.65;0.30;;;11.10;99.90;;;;;;5113505;27;20040;-39
2022/11/04 02:20:13;;;;;;;0.70;0.20;;;11.20;99.90;;;;;;5093685;28;20056;-31
2022/11/04 02:22:57;;;;;;;0.28;0.28;;;11.20;99.90;;;;;;5109077;28;20035;-42
2022/11/04 02:25:53;;;;;;;0.55;0.55;;;11.20;99.90;;;;;;5102272;28;20028;-34
2022/11/04 02:28:21;;;;;;;5.00;0.73;;;11.20;99.90;;;;;;5099165;28;20423;-35
2022/11/04 02:31:13;;;;;;;2.60;0.80;;;11.10;99.90;;;;;;5105394;28;20103;-31
2022/11/04 02:33:43;;;;;;;1.42;0.77;;;11.10;99.90;;;;;;5095372;28;20499;-34
2022/11/04 02:36:26;;;;;;;4.05;0.90;;;11.10;99.90;;;;;;5092575;28;20023;-37
2022/11/04 02:38:58;;;;;;;1.20;0.80;;;11.00;99.90;;;;;;5108018;28;20836;-33
2022/11/04 02:41:41;;;;;;;0.60;0.60;;;10.90;99.90;;;;;;5109205;28;20028;-34
2022/11/04 02:44:32;;;;;;;5.30;1.00;;;10.90;99.90;;;;;;5093281;28;20110;-32
2022/11/04 02:47:12;;;;;;;0.50;0.50;;;10.90;99.90;;;;;;5112369;28;20110;-37
2022/11/04 02:49:46;;;;;;;3.22;1.00;;;10.90;99.90;;;;;;5098342;28;20043;-34
2022/11/04 02:52:18;;;;;;;1.80;1.27;;;10.90;99.90;;;;;;5098760;28;20023;-35
2022/11/04 02:55:01;;;;;;;1.35;1.02;;;10.90;99.90;;;;;;5104270;28;20031;-41
2022/11/04 02:57:35;;;;;;;2.20;0.70;;;10.90;99.90;;;;;;5100065;28;20775;-31
2022/11/04 03:00:09;;;;;;;3.30;0.90;;;10.80;99.90;;;;;;5108878;28;20379;-31
2022/11/04 03:02:46;;;;;;;2.40;1.88;;;10.80;99.90;;;;;;5108639;28;20500;-30
2022/11/04 03:05:16;;;;;;;2.25;0.90;;;10.80;99.90;;;;;;5098629;28;20481;-31
2022/11/04 03:07:45;;;;;;;4.55;1.02;;;10.80;99.90;;;;;;5093365;28;20496;-32
2022/11/04 03:10:26;;;;;;;0.90;0.90;;;10.80;99.90;;;;;;5097599;28;20484;-33
2022/11/04 03:13:13;;;;;;;0.73;0.73;;;10.80;99.90;;;;;;5111050;28;20495;-32
2022/11/04 03:15:45;;;;;;;6.45;1.00;;;10.70;99.90;;;;;;5102254;28;20472;-34
2022/11/04 03:18:18;;;;;;;1.75;1.65;;;10.70;99.90;;;;;;5106282;28;20044;-35
2022/11/04 03:20:46;;;;;;;5.45;1.20;;;10.60;99.90;;;;;;5116339;28;20379;-33
2022/11/04 03:23:12;;;;;;;;;;;10.50;99.90;;;;;;5103033;28;20031;-35
2022/11/04 03:25:44;;;;;;;2.80;1.33;;;10.60;99.90;;;;;;5096808;28;19908;-33
2022/11/04 03:28:19;;;;;;;3.50;1.23;;;10.50;99.90;;;;;;5098007;28;20522;-31
2022/11/04 03:30:48;;;;;;;4.13;1.88;;;10.50;99.90;;;;;;5099670;28;20107;-33
2022/11/04 03:33:57;;;;;;;1.80;1.70;;;10.40;99.90;;;;;;5096137;28;20111;-33
2022/11/04 03:36:23;;;;;;;1.67;1.58;;;10.40;99.90;;;;;;5098734;27;20035;-34
2022/11/04 03:38:50;;;;;;;2.42;1.85;;;10.40;99.90;;;;;;5098833;28;20151;-32
2022/11/04 03:41:26;;;;;;;1.65;1.52;;;10.30;99.90;;;;;;5108490;28;20099;-32
2022/11/04 03:43:51;;;;;;;1.98;1.40;;;10.30;99.90;;;;;;5113817;28;20059;-32
2022/11/04 03:46:18;;;;;;;2.05;1.40;;;10.30;99.90;;;;;;5114416;27;20518;-37
2022/11/04 03:48:46;;;;;;;2.40;1.52;;;10.20;99.90;;;;;;5108151;28;20531;-33
2022/11/04 03:51:11;;;;;;;1.80;1.45;;;10.20;99.90;;;;;;5105461;28;20027;-35
2022/11/04 03:53:37;;;;;;;4.00;2.17;;;10.10;99.90;;;;;;5104834;28;20042;-31
2022/11/04 03:56:21;;;;;;;8.52;2.35;;;10.10;99.90;;;;;;5097250;28;20376;-33
2022/11/04 03:59:19;;;;;;;5.07;2.40;;;10.10;99.90;;;;;;5095271;28;20028;-33
2022/11/04 04:01:54;;;;;;;4.55;2.28;;;10.10;99.90;;;;;;5096774;28;20467;-33
2022/11/04 04:04:36;;;;;;;7.05;1.98;;;10.10;99.90;;;;;;5095651;28;20048;-36
2022/11/04 04:07:15;;;;;;;6.97;2.72;;;10.00;99.90;;;;;;5108643;28;20043;-37
2022/11/04 04:09:51;;;;;;;2.95;2.15;;;10.00;99.90;;;;;;5103903;28;20177;-35
2022/11/04 04:12:39;;;;;;;7.15;3.25;;;10.00;99.90;;;;;;5095568;28;20063;-36
2022/11/04 04:15:17;;;;;;;4.13;2.70;;;9.90;99.90;;;;;;5113480;28;20552;-32
2022/11/04 04:17:51;;;;;;;3.72;2.33;;;9.90;99.90;;;;;;5105033;27;20040;-34
2022/11/04 04:20:19;;;;;;;6.93;3.35;;;9.90;99.90;;;;;;5094823;28;20020;-33
2022/11/04 04:22:51;;;;;;;7.50;3.53;;;9.90;99.90;;;;;;5103494;28;20093;-34
2022/11/04 04:28:03;;;;;;;8.05;4.57;;;9.90;99.90;;;;;;5095367;28;20507;-33
2022/11/04 04:30:29;;;;;;;8.02;4.10;;;9.90;99.90;;;;;;5099266;28;20496;-33
2022/11/04 04:33:00;;;;;;;7.38;3.30;;;9.90;99.90;;;;;;5110825;28;20026;-30
2022/11/04 04:35:49;;;;;;;6.40;4.32;;;9.80;99.90;;;;;;5100315;28;20456;-32
2022/11/04 04:46:48;;;;;;;5.68;4.10;;;9.80;99.90;;;;;;5094880;28;21289;-33
2022/11/04 04:49:14;;;;;;;7.82;4.75;;;9.80;99.90;;;;;;5097884;28;20442;-33
2022/11/04 04:51:45;;;;;;;9.70;4.90;;;9.70;99.90;;;;;;5103143;28;20080;-31
2022/11/04 04:54:11;;;;;;;8.77;4.50;;;9.70;99.90;;;;;;5109976;28;20477;-32
2022/11/04 04:56:37;;;;;;;11.32;5.50;;;9.70;99.90;;;;;;5096748;28;20431;-31
2022/11/04 04:59:03;;;;;;;6.90;4.90;;;9.70;99.90;;;;;;5094822;28;20046;-32
2022/11/04 05:01:28;;;;;;;7.28;4.82;;;9.70;99.90;;;;;;5098905;28;20028;-34
2022/11/04 05:03:54;;;;;;;9.27;5.80;;;9.70;99.90;;;;;;5101883;28;20106;-32
2022/11/04 05:06:20;;;;;;;10.15;6.25;;;9.80;99.90;;;;;;5112957;28;20049;-33
2022/11/04 05:08:46;;;;;;;11.65;6.25;;;9.80;99.90;;;;;;5113062;28;20028;-41
2022/11/04 05:11:12;;;;;;;8.70;5.32;;;9.80;99.90;;;;;;5105891;28;20398;-35
2022/11/04 05:13:37;;;;;;;11.63;5.60;;;9.80;99.90;;;;;;5103734;28;20027;-34
2022/11/04 05:16:08;;;;;;;12.68;5.55;;;9.80;99.90;;;;;;5115479;28;20424;-33
2022/11/04 05:18:35;;;;;;;11.02;5.55;;;9.90;99.90;;;;;;5110657;28;20040;-36
2022/11/04 05:21:09;;;;;;;9.98;5.68;;;9.90;99.90;;;;;;5111652;28;20020;-34
2022/11/04 05:23:36;;;;;;;12.95;6.47;;;9.90;99.90;;;;;;5095648;28;20099;-35
2022/11/04 05:26:02;;;;;;;13.55;6.63;;;10.00;99.90;;;;;;5105991;27;20544;-31
2022/11/04 05:28:28;;;;;;;11.35;6.13;;;10.00;99.90;;;;;;5098113;28;20024;-40
2022/11/04 05:30:53;;;;;;;10.07;5.25;;;9.90;99.90;;;;;;5104192;28;20028;-39
2022/11/04 05:33:19;;;;;;;10.70;5.53;;;9.90;99.90;;;;;;5098165;28;20030;-34
2022/11/04 05:35:45;;;;;;;8.55;5.97;;;9.80;99.90;;;;;;5099556;28;20028;-31
2022/11/04 05:38:10;;;;;;;15.15;6.97;;;9.80;99.90;;;;;;5110926;28;20607;-32
2022/11/04 05:40:36;;;;;;;14.35;6.28;;;9.70;99.90;;;;;;5103293;28;20111;-31
2022/11/04 05:43:02;;;;;;;15.80;7.13;;;9.60;99.90;;;;;;5101053;28;20034;-35
2022/11/04 05:45:28;;;;;;;15.10;6.72;;;9.60;99.90;;;;;;5093227;28;20028;-33
2022/11/04 05:48:01;;;;;;;14.25;7.43;;;9.60;99.90;;;;;;5104601;28;20491;-33
2022/11/04 05:50:28;;;;;;;16.02;6.70;;;9.60;99.90;;;;;;5108324;28;20032;-33
2022/11/04 05:53:00;;;;;;;15.18;7.38;;;9.60;99.90;;;;;;5100597;28;20065;-32
2022/11/04 05:55:26;;;;;;;14.25;7.72;;;9.60;99.90;;;;;;5110637;28;20023;-30
2022/11/04 05:57:52;;;;;;;15.02;6.47;;;9.50;99.90;;;;;;5098252;28;20066;-32
2022/11/04 06:00:18;;;;;;;15.30;7.10;;;9.50;99.90;;;;;;5093276;28;20384;-32
2022/11/04 06:02:44;;;;;;;10.15;6.60;;;9.50;99.90;;;;;;5092753;28;20040;-31
2022/11/04 06:05:10;;;;;;;10.45;6.55;;;9.50;99.90;;;;;;5096524;28;20057;-34
2022/11/04 06:07:35;;;;;;;13.88;7.45;;;9.50;99.90;;;;;;5102640;28;20023;-35
2022/11/04 06:10:01;;;;;;;13.55;6.40;;;9.50;99.90;;;;;;5109338;28;20023;-34
2022/11/04 06:12:27;;;;;;;10.82;6.82;;;9.50;99.90;;;;;;5107885;28;20028;-32
2022/11/04 06:14:52;;;;;;;13.43;6.05;;;9.50;99.90;;;;;;5093652;28;20028;-38
2022/11/04 06:17:20;;;;;;;15.00;6.20;;;9.50;99.90;;;;;;5091859;28;20028;-45
2022/11/04 06:19:46;;;;;;;;;;;9.50;99.90;;;;;;5093125;28;20476;-32
2022/11/04 06:22:13;;;;;;;11.93;6.10;;;9.60;99.90;;;;;;5097604;28;19915;-31
2022/11/04 06:24:39;;;;;;;12.10;6.35;;;9.60;99.90;;;;;;5092329;28;20032;-33
2022/11/04 06:27:24;;;;;;;16.38;7.15;;;9.60;99.90;;;;;;5103233;28;20024;-34
2022/11/04 06:29:50;;;;;;;19.02;6.03;;;9.60;99.90;;;;;;5112074;28;20039;-33
2022/11/04 06:32:18;;;;;;;13.85;6.53;;;9.60;99.90;;;;;;5112787;28;20383;-31
2022/11/04 06:34:44;;;;;;;16.60;6.38;;;9.60;99.90;;;;;;5107523;28;20024;-34
2022/11/04 06:37:10;;;;;;;11.27;5.95;;;9.60;99.90;;;;;;5104653;28;20042;-32
2022/11/04 06:39:36;;;;;;;15.88;6.50;;;9.50;99.90;;;;;;5108826;28;20401;-34
2022/11/04 06:42:03;;;;;;;18.75;6.32;;;9.50;99.90;;;;;;5094126;28;20540;-32
2022/11/04 06:44:29;;;;;;;11.30;6.13;;;9.50;99.90;;;;;;5092759;28;20024;-33
2022/11/04 06:46:55;;;;;;;11.55;6.38;;;9.40;99.90;;;;;;5097144;28;20026;-34
2022/11/04 06:49:22;;;;;;;9.93;5.65;;;9.40;99.90;;;;;;5107854;28;20480;-33
2022/11/04 06:51:48;;;;;;;13.68;5.70;;;9.50;99.90;;;;;;5098443;28;20028;-34
2022/11/04 06:54:15;;;;;;;10.35;5.53;;;9.40;99.90;;;;;;5104668;28;20502;-35
2022/11/04 06:56:41;;;;;;;17.13;5.97;;;9.40;99.90;;;;;;5096467;28;20517;-36
2022/11/04 06:59:08;;;;;;;10.32;4.93;;;9.40;99.90;;;;;;5098690;28;20028;-31
2022/11/04 07:01:35;;;;;;;12.52;6.53;;;9.40;99.90;;;;;;5105542;28;20032;-36
2022/11/04 07:04:04;;;;;;;13.05;4.88;;;9.40;99.90;;;;;;5091753;28;20036;-32
2022/11/04 07:06:29;;;;;;;10.50;4.95;;;9.40;99.90;;;;;;5098232;28;20039;-40
2022/11/04 07:08:58;;;;;;;9.10;5.38;;;9.40;99.90;;;;;;5089723;28;20024;-39
2022/11/04 07:11:24;;;;;;;14.35;4.85;;;9.40;99.90;;;;;;5097319;28;20032;-43
2022/11/04 07:13:50;;;;;;;16.92;4.80;;;9.40;99.90;;;;;;5106554;28;20062;-41
2022/11/04 07:16:17;;;;;;;10.90;5.57;;;9.40;99.90;;;;;;5097292;28;20047;-40
2022/11/04 07:18:43;;;;;;;9.90;5.78;;;9.50;99.90;;;;;;5101076;28;20480;-39
2022/11/04 07:21:10;;;;;;;15.43;5.40;;;9.50;99.90;;;;;;5101959;28;20417;-45
2022/11/04 07:23:36;;;;;;;12.65;5.00;;;9.50;99.90;;;;;;5111449;28;20032;-40
2022/11/04 07:26:04;;;;;;;11.00;5.82;;;9.50;99.90;;;;;;5097040;28;20081;-40
2022/11/04 07:28:29;;;;;;;13.63;5.25;;;9.60;99.90;;;;;;5106777;28;20110;-39
2022/11/04 07:30:57;;;;;;;13.75;5.32;;;9.60;99.90;;;;;;5098174;28;20242;-41
2022/11/04 07:33:24;;;;;;;7.90;5.05;;;9.60;99.90;;;;;;5110318;28;20059;-38
2022/11/04 07:35:51;;;;;;;12.43;5.15;;;9.60;99.90;;;;;;5109476;28;20051;-41
2022/11/04 07:38:17;;;;;;;12.35;4.57;;;9.70;99.90;;;;;;5099872;28;20060;-39
2022/11/04 07:40:42;;;;;;;9.05;4.53;;;9.80;99.90;;;;;;5103101;28;20115;-40
2022/11/04 07:43:08;;;;;;;14.23;5.93;;;9.80;99.90;;;;;;5103028;28;20023;-39
2022/11/04 07:45:33;;;;;;;9.60;5.40;;;9.80;99.90;;;;;;5093015;28;20032;-38
2022/11/04 07:47:59;;;;;;;9.43;5.20;;;9.80;99.90;;;;;;5103058;28;20081;-40
2022/11/04 07:50:25;;;;;;;14.77;5.38;;;9.90;99.90;;;;;;5107194;28;20404;-41
2022/11/04 07:52:50;;;;;;;11.27;5.65;;;9.90;99.90;;;;;;5103819;28;20115;-44
2022/11/04 07:55:19;;;;;;;11.80;5.15;;;10.00;99.90;;;;;;5098642;28;20026;-57
2022/11/04 07:57:46;;;;;;;8.35;5.03;;;10.00;99.90;;;;;;5112041;28;20023;-40
2022/11/04 08:00:14;;;;;;;7.07;4.10;;;10.10;99.90;;;;;;5112522;28;20032;-41
2022/11/04 08:02:40;;;;;;;10.02;4.40;;;10.10;99.90;;;;;;5113548;28;20020;-40
2022/11/04 08:05:07;;;;;;;5.50;4.30;;;10.10;99.90;;;;;;5116529;28;20035;-40
2022/11/04 08:07:32;;;;;;;12.15;5.00;;;10.10;99.90;;;;;;5108617;28;20467;-42
2022/11/04 08:09:58;;;;;;;10.70;5.30;;;10.10;99.90;;;;;;5114199;28;20108;-43
2022/11/04 08:12:24;;;;;;;8.50;4.75;;;10.20;99.90;;;;;;5116481;28;20035;-39
2022/11/04 08:14:50;;;;;;;8.90;4.40;;;10.20;99.90;;;;;;5113460;28;20489;-39
2022/11/04 08:17:16;;;;;;;10.25;5.93;;;10.30;99.90;;;;;;5100191;28;20024;-39
2022/11/04 08:19:41;;;;;;;14.77;5.15;;;10.30;99.90;;;;;;5105356;28;20540;-40
2022/11/04 08:22:07;;;;;;;8.02;4.32;;;10.40;99.90;;;;;;5100529;28;20436;-40
2022/11/04 08:24:34;;;;;;;10.20;4.60;;;10.40;99.90;;;;;;5101982;27;20020;-38
2022/11/04 08:26:59;;;;;;;9.88;4.28;;;10.50;99.90;;;;;;5115349;27;20027;-39
2022/11/04 08:29:25;;;;;;;10.45;3.83;;;10.50;99.90;;;;;;5111931;28;20027;-39
2022/11/04 08:31:50;;;;;;;10.30;4.03;;;10.60;99.90;;;;;;5098067;28;20028;-40
2022/11/04 08:34:17;;;;;;;12.27;4.05;;;10.70;99.90;;;;;;5107289;28;20031;-39
2022/11/04 08:36:44;;;;;;;12.85;3.88;;;10.70;99.90;;;;;;5107514;28;20028;-36
2022/11/04 08:39:10;;;;;;;17.17;4.30;;;10.70;99.90;;;;;;5103589;28;20084;-57
2022/11/04 08:41:54;;;;;;;9.30;3.58;;;10.80;99.90;;;;;;5113076;28;20034;-42
2022/11/04 08:44:21;;;;;;;7.80;3.67;;;10.90;99.90;;;;;;5102716;28;20404;-53
2022/11/04 08:46:47;;;;;;;8.50;3.85;;;10.90;99.90;;;;;;5103191;28;20479;-41
2022/11/04 08:49:13;;;;;;;10.98;4.18;;;10.90;99.90;;;;;;5103327;28;20028;-40
2022/11/04 08:51:42;;;;;;;12.23;4.20;;;10.90;99.90;;;;;;5094555;28;20089;-40
2022/11/04 08:54:08;;;;;;;8.45;3.97;;;11.00;99.90;;;;;;5095134;28;20028;-36
2022/11/04 08:56:36;;;;;;;9.13;3.67;;;11.00;99.90;;;;;;5094593;28;20433;-37
2022/11/04 08:59:03;;;;;;;7.00;3.72;;;11.10;99.90;;;;;;5096770;28;20019;-39
2022/11/04 09:01:33;;;;;;;16.48;4.90;;;11.20;99.90;;;;;;5107056;28;20027;-40
2022/11/04 09:03:59;;;;;;;8.60;3.90;;;11.10;99.90;;;;;;5111563;28;20092;-39
2022/11/04 09:06:37;;;;;;;10.40;4.40;;;11.10;99.90;;;;;;5102482;28;20429;-37
2022/11/04 09:09:06;;;;;;;;;;;11.10;99.90;;;;;;5101580;28;20096;-40
2022/11/04 09:11:36;;;;;;;9.38;4.65;;;11.10;99.90;;;;;;5096182;28;19908;-38
2022/11/04 09:14:02;;;;;;;11.77;4.68;;;11.10;99.90;;;;;;5109537;28;20513;-40
2022/11/04 09:16:29;;;;;;;6.40;3.75;;;11.10;99.90;;;;;;5105609;28;20043;-38
2022/11/04 09:18:56;;;;;;;11.57;4.88;;;11.20;99.90;;;;;;5105834;27;20032;-41
2022/11/04 09:21:22;;;;;;;17.07;5.03;;;11.20;99.90;;;;;;5127030;27;20031;-39
2022/11/04 09:23:48;;;;;;;18.33;5.90;;;11.30;99.90;;;;;;5113352;28;20024;-40
2022/11/04 09:26:14;;;;;;;13.27;5.35;;;11.40;99.90;;;;;;5112948;27;20063;-39
2022/11/04 09:28:41;;;;;;;7.15;4.60;;;11.50;99.90;;;;;;5117452;27;20042;-41
2022/11/04 09:31:15;;;;;;;11.23;5.03;;;11.60;99.90;;;;;;5094624;28;20502;-40
2022/11/04 09:33:41;;;;;;;8.15;5.10;;;11.60;99.90;;;;;;5103885;28;20035;-38
2022/11/04 09:36:08;;;;;;;11.98;5.78;;;11.60;99.90;;;;;;5102454;28;20282;-40
2022/11/04 09:38:36;;;;;;;11.55;5.30;;;11.60;99.90;;;;;;5097347;28;20356;-55
2022/11/04 09:41:10;;;;;;;13.85;5.28;;;11.60;99.90;;;;;;5096345;28;20069;-42
2022/11/04 09:44:00;;;;;;;7.40;5.05;;;11.70;99.90;;;;;;5111849;28;20376;-43
2022/11/04 09:46:29;;;;;;;7.05;4.35;;;11.80;99.90;;;;;;5093517;28;20024;-42
2022/11/04 09:48:56;;;;;;;8.98;5.13;;;11.90;99.90;;;;;;5096613;28;20024;-54
2022/11/04 09:51:25;;;;;;;12.23;5.07;;;12.10;99.90;;;;;;5112071;28;20027;-41
2022/11/04 09:54:07;;;;;;;8.77;4.72;;;12.20;99.90;;;;;;5102396;28;20085;-40
2022/11/04 09:56:41;;;;;;;9.43;4.53;;;12.40;99.90;;;;;;5102954;28;20518;-42
2022/11/04 09:59:12;;;;;;;16.02;5.93;;;12.60;99.90;;;;;;5103940;28;20028;-40
2022/11/04 10:02:06;;;;;;;17.38;4.82;;;12.80;99.90;;;;;;5100554;28;20016;-38
2022/11/04 10:04:52;;;;;;;12.20;5.15;;;13.00;99.90;;;;;;5110348;27;20510;-41
2022/11/04 10:07:36;;;;;;;11.02;5.25;;;13.20;99.90;;;;;;5110559;27;20023;-41
2022/11/04 10:10:13;;;;;;;10.20;5.45;;;13.40;99.90;;;;;;5112464;28;20490;-40
2022/11/04 10:12:47;;;;;;;15.13;4.97;;;13.30;99.90;;;;;;5106264;27;20061;-42
2022/11/04 10:15:49;;;;;;;10.35;5.93;;;13.30;99.90;;;;;;5093675;28;20156;-42
2022/11/04 10:18:33;;;;;;;8.63;4.55;;;13.30;99.90;;;;;;5109001;28;20139;-31
2022/11/04 10:22:02;;;;;;;5.68;4.10;;;13.40;99.90;;;;;;5107557;28;20480;-40
2022/11/04 10:24:39;;;;;;;11.10;4.50;;;13.40;99.90;;;;;;5077579;28;20396;-40
2022/11/04 10:27:18;;;;;;;7.45;4.13;;;13.20;99.90;;;;;;5107720;28;20023;-41
2022/11/04 10:29:51;;;;;;;6.93;3.88;;;12.90;99.90;;;;;;5112651;28;20114;-41
2022/11/04 10:32:31;;;;;;;8.82;4.22;;;13.00;99.90;;;;;;5105210;28;20019;-41
2022/11/04 10:35:11;;;;;;;9.75;4.82;;;13.10;99.90;;;;;;5106074;28;20062;-41
2022/11/04 10:37:37;;;;;;;9.35;4.07;;;13.30;99.90;;;;;;5096172;28;20034;-41
2022/11/04 10:40:20;;;;;;;5.90;3.75;;;13.40;99.90;;;;;;5094014;28;20073;-40
2022/11/04 10:42:46;;;;;;;8.50;4.53;;;13.50;99.90;;;;;;5111503;28;20479;-39
2022/11/04 10:45:13;;;;;;;7.13;4.03;;;13.60;99.90;;;;;;5109966;28;20077;-41
2022/11/04 10:47:59;;;;;;;11.13;4.15;;;13.60;99.90;;;;;;5105181;28;20055;-40
2022/11/04 10:50:38;;;;;;;7.25;4.32;;;13.50;99.90;;;;;;5112066;28;20391;-44
2022/11/04 10:53:14;;;;;;;8.77;3.28;;;13.30;99.90;;;;;;5112820;28;20110;-43
2022/11/04 10:56:33;;;;;;;5.63;3.22;;;13.20;99.90;;;;;;5096234;28;20032;-42
2022/11/04 10:59:14;;;;;;;11.00;3.78;;;13.20;99.90;;;;;;5068825;28;20048;-40
2022/11/04 11:01:57;;;;;;;12.13;3.53;;;13.20;99.90;;;;;;5104120;28;20400;-41
2022/11/04 11:04:25;;;;;;;5.47;3.85;;;13.20;99.90;;;;;;5113215;28;20499;-42
2022/11/04 11:06:53;;;;;;;5.25;3.38;;;13.10;99.90;;;;;;5113635;28;20027;-41
2022/11/04 11:09:32;;;;;;;7.75;3.33;;;13.10;99.90;;;;;;5113348;28;20111;-42
2022/11/04 11:12:05;;;;;;;6.93;3.25;;;13.20;99.90;;;;;;5113361;28;20433;-45
2022/11/04 11:14:33;;;;;;;5.43;3.85;;;13.30;99.90;;;;;;5112737;28;20529;-42
2022/11/04 11:17:14;;;;;;;9.70;4.38;;;13.30;99.90;;;;;;5113529;28;20106;-47
2022/11/04 11:20:07;;;;;;;6.47;4.13;;;13.40;99.90;;;;;;5107630;28;20093;-44
2022/11/04 11:22:41;;;;;;;9.27;3.35;;;13.40;99.90;;;;;;5086238;28;20449;-43
2022/11/04 11:25:29;;;;;;;7.07;3.45;;;13.20;99.90;;;;;;5092595;28;20043;-44
2022/11/04 11:28:04;;;;;;;10.65;3.70;;;13.10;99.90;;;;;;5092858;28;20151;-44
2022/11/04 11:30:32;;;;;;;7.32;3.63;;;13.30;99.90;;;;;;5093534;28;20032;-40
2022/11/04 11:33:05;;;;;;;8.05;3.15;;;13.20;99.90;;;;;;5113089;28;20028;-44
2022/11/04 11:35:40;;;;;;;8.93;3.17;;;13.10;99.90;;;;;;5113318;28;20408;-41
2022/11/04 11:38:17;;;;;;;7.05;2.78;;;13.00;99.90;;;;;;5116340;28;20437;-42
2022/11/04 11:40:45;;;;;;;4.13;2.78;;;12.90;99.90;;;;;;5117392;28;20031;-40
2022/11/04 11:43:31;;;;;;;5.35;2.90;;;12.90;99.90;;;;;;5117229;28;20028;-37
2022/11/04 11:45:59;;;;;;;7.55;3.10;;;13.00;99.90;;;;;;5116969;28;20044;-34
2022/11/04 11:48:41;;;;;;;8.10;3.42;;;13.00;99.90;;;;;;5116111;28;20487;-37
2022/11/04 11:51:12;;;;;;;4.57;2.70;;;13.10;99.90;;;;;;5116856;28;20452;-37
2022/11/04 11:53:44;;;;;;;9.32;2.85;;;13.00;99.90;;;;;;5112060;28;20491;-42
2022/11/04 11:56:33;;;;;;;6.93;2.83;;;13.10;99.90;;;;;;5095236;28;20038;-41
2022/11/04 11:59:24;;;;;;;9.02;3.08;;;13.10;99.90;;;;;;5096289;28;20063;-41
2022/11/04 12:02:19;;;;;;;6.10;2.78;;;13.10;99.90;;;;;;5096542;28;20383;-41
2022/11/04 12:04:45;;;;;;;4.35;2.58;;;13.20;99.90;;;;;;5095921;28;20048;-44
2022/11/04 12:07:35;;;;;;;7.50;3.08;;;13.20;99.90;;;;;;5095043;28;20365;-42
2022/11/04 12:10:04;;;;;;;5.25;3.10;;;13.20;99.90;;;;;;5096391;28;20108;-39
2022/11/04 12:12:48;;;;;;;8.88;3.35;;;13.10;99.90;;;;;;5096019;28;20032;-43
2022/11/04 12:18:50;;;;;;;9.30;3.03;;;13.10;99.90;;;;;;5096023;28;20047;-42
2022/11/04 12:21:30;;;;;;;6.32;3.35;;;13.00;99.90;;;;;;5073197;28;20520;-46
2022/11/04 12:24:05;;;;;;;7.82;3.15;;;13.00;99.90;;;;;;5095846;28;20024;-41
2022/11/04 12:26:42;;;;;;;8.35;3.50;;;12.90;99.90;;;;;;5096038;28;20032;-44
2022/11/04 12:29:46;;;;;;;5.78;3.72;;;12.90;99.90;;;;;;5095847;28;20024;-42
2022/11/04 12:32:26;;;;;;;8.95;3.53;;;12.80;99.90;;;;;;5095614;28;20028;-45
2022/11/04 12:35:16;;;;;;;7.50;3.70;;;12.80;99.90;;;;;;5095600;28;20495;-44
2022/11/04 12:37:54;;;;;;;6.50;4.13;;;12.80;99.90;;;;;;5095625;28;20077;-42
2022/11/04 12:40:41;;;;;;;9.00;4.25;;;12.90;99.90;;;;;;5095509;28;20491;-42
2022/11/04 12:43:30;;;;;;;6.50;4.30;;;12.90;99.90;;;;;;5101036;28;20410;-41
2022/11/04 12:46:26;;;;;;;8.00;4.50;;;12.90;99.90;;;;;;5105409;28;20483;-42
2022/11/04 12:49:18;;;;;;;15.50;4.25;;;13.00;99.90;;;;;;5094929;28;20033;-41
2022/11/04 12:51:51;;;;;;;4.18;3.13;;;13.10;99.90;;;;;;5099224;28;20036;-42
2022/11/04 12:55:01;;;;;;;11.50;3.63;;;13.10;99.90;;;;;;5105278;28;20017;-42
2022/11/04 12:57:40;;;;;;;5.90;2.80;;;13.20;99.90;;;;;;5109659;28;20030;-41
2022/11/04 13:00:12;;;;;;;3.30;1.52;;;13.10;99.90;;;;;;5095149;28;20099;-41
2022/11/04 13:02:50;;;;;;;5.25;1.35;;;12.80;99.90;;;;;;5095078;28;20096;-43
2022/11/04 13:05:35;;;;;;;0.80;0.68;;;12.60;99.90;;;;;;5095015;28;20436;-46
2022/11/04 13:08:15;;;;;;;2.17;0.60;;;12.30;99.90;;;;;;5095120;28;20040;-42
2022/11/04 13:11:21;;;;;;;3.88;0.80;;;12.30;99.90;;;;;;5106762;28;20099;-41
2022/11/04 13:14:01;;;;;;;3.70;1.08;;;12.20;99.90;;;;;;5114634;28;20475;-42
2022/11/04 13:16:28;;;;;;;3.60;0.57;;;12.10;99.90;;;;;;5115117;28;20020;-43
2022/11/04 13:18:55;;;;;;;0.95;0.40;;;12.20;99.90;;;;;;5115267;28;20058;-42
2022/11/04 13:21:26;;;;;;;1.65;0.82;;;12.10;99.90;;;;;;5115132;28;20476;-42
2022/11/04 13:24:04;;;;;;;2.45;0.77;;;12.10;99.90;;;;;;5115092;28;20155;-43
2022/11/04 13:26:31;;;;;;;1.27;0.47;;;12.10;99.90;;;;;;5114909;28;20031;-41
2022/11/04 13:29:03;;;;;;;4.00;0.47;;;12.20;99.90;;;;;;5114988;28;20518;-39
2022/11/04 13:31:55;;;;;;;1.58;0.73;;;12.30;99.90;;;;;;5114410;28;20585;-41
2022/11/04 13:34:30;;;;;;;1.88;0.45;;;12.40;99.90;;;;;;5114877;28;20201;-41
2022/11/04 13:37:08;;;;;;;0.28;0.28;;;12.40;99.90;;;;;;5114983;28;20027;-40
2022/11/04 13:39:41;;;;;;;1.08;0.68;;;12.40;99.90;;;;;;5114713;28;20490;-41
2022/11/04 13:42:27;;;;;;;0.40;0.40;;;12.40;99.90;;;;;;5114806;28;20047;-41
2022/11/04 13:44:58;;;;;;;1.67;0.50;;;12.40;99.90;;;;;;5114822;28;20028;-42
2022/11/04 13:47:35;;;;;;;5.13;0.45;;;12.40;99.90;;;;;;5113545;28;20518;-41
2022/11/04 13:50:01;;;;;;;2.42;0.63;;;12.40;99.90;;;;;;5113422;28;20440;-40
2022/11/04 13:52:31;;;;;;;3.42;0.65;;;12.40;99.90;;;;;;5109064;28;20081;-44